METAR Data
IDs: Format: Raw Decoded Include TAF

Data at: 1252 UTC 23 Sep 2018

K0R4 231235Z AUTO 00000KT 10SM CLR 23/22 A2994 RMK AO2 T02300222
K0R4 231215Z AUTO 10004KT 10SM CLR 23/22 A2994 RMK AO2 T02280221
K0R4 231155Z AUTO 00000KT 10SM CLR 23/22 A2993 RMK AO2 70001 T02260220 10230 20225
K0R4 231135Z AUTO 08003KT 10SM CLR 23/22 A2993 RMK AO2 T02270221
K0R4 231115Z AUTO 00000KT 10SM CLR 23/22 A2993 RMK AO2 T02260221
K0R4 231055Z AUTO 00000KT 10SM CLR 23/22 A2993 RMK AO2 T02300221
K0R4 231035Z AUTO 10003KT 10SM CLR 23/22 A2992 RMK AO2 T02280221
K0R4 231015Z AUTO 00000KT 10SM CLR 23/22 A2992 RMK AO2 T02270221
K0R4 230955Z AUTO 00000KT 10SM CLR 23/22 A2993 RMK AO2 T02260221
K0R4 230935Z AUTO 11004KT 10SM CLR 23/22 A2992 RMK AO2 T02260222
K0R4 230915Z AUTO 11003KT 10SM CLR 23/22 A2993 RMK AO2 T02260221
K0R4 230850Z AUTO 10003KT 10SM SCT120 23/22 A2993 RMK AO2 T02270222
K0R4 230835Z AUTO 10004KT 10SM OVC120 23/22 A2993 RMK AO2 T02270223
K0R4 230815Z AUTO 00000KT 10SM SCT006 SCT050 OVC120 23/22 A2994 RMK AO2 T02250221
K0R4 230755Z AUTO 00000KT 10SM SCT006 SCT050 OVC120 23/22 A2994 RMK AO2 T02250221
K0R4 230735Z AUTO 00000KT 10SM OVC120 23/22 A2994 RMK AO2 T02250221
K0R4 230715Z AUTO 00000KT 10SM OVC120 23/22 A2995 RMK AO2 T02280222
K0R4 230655Z AUTO 00000KT 10SM OVC120 23/22 A2995 RMK AO2 T02290223
K0R4 230635Z AUTO 08003KT 10SM OVC110 23/22 A2995 RMK AO2 T02290224
K0R4 230615Z AUTO 00000KT 10SM SCT006 BKN110 23/22 A2995 RMK AO2 T02300223
K0R4 230555Z AUTO 00000KT 10SM SCT006 SCT120 23/22 A2996 RMK AO2 T02280223 10236 20224 403250224
K0R4 230535Z AUTO 00000KT 10SM CLR 23/22 A2995 RMK AO2 T02290223
K0R4 230515Z AUTO 00000KT 10SM CLR 23/23 A2996 RMK AO2 T02300225
K0R4 230455Z AUTO 10004KT 10SM CLR 23/22 A2996 RMK AO2 T02270223
K0R4 230435Z AUTO 00000KT 7SM CLR 23/22 A2996 RMK AO2 T02260223
K0R4 230415Z AUTO 00000KT 10SM CLR 23/22 A2996 RMK AO2 T02260221
K0R4 230355Z AUTO 00000KT 10SM CLR 23/23 A2996 RMK AO2 T02310225
K0R4 230335Z AUTO 00000KT 10SM CLR 23/23 A2997 RMK AO2 T02310225
K0R4 230315Z AUTO 00000KT 10SM CLR 23/23 A2997 RMK AO2 T02320226
K0R4 230255Z AUTO 00000KT 10SM CLR 23/23 A2997 RMK AO2 T02320226
K0R4 230235Z AUTO 00000KT 10SM CLR 24/23 A2997 RMK AO2 T02350226
K0R4 230215Z AUTO 00000KT 10SM CLR 24/23 A2996 RMK AO2 T02350227
K0R4 230155Z AUTO 09003KT 10SM CLR 24/23 A2996 RMK AO2 T02350227
K0R4 230135Z AUTO 09003KT 10SM CLR 24/23 A2995 RMK AO2 T02350227
K0R4 230115Z AUTO 11003KT 10SM CLR 24/23 A2995 RMK AO2 T02350229
K0R4 230055Z AUTO 10004KT 10SM SCT120 24/23 A2995 RMK AO2 T02350229
K0R4 230035Z AUTO 10003KT 10SM -DZ SCT009 SCT024 SCT120 24/23 A2995 RMK AO2 T02360228
K0R4 230015Z AUTO 00000KT 10SM -RA SCT009 SCT024 SCT060 24/23 A2995 RMK AO2 T02350227
K0R4 222355Z AUTO 12003KT 10SM SCT100 24/23 A2995 RMK AO2 60001 T02360228 10293 20232
K0R4 222335Z AUTO 08003KT 10SM SCT100 24/23 A2994 RMK AO2 LTG DSNT NE T02380227
K0R4 222315Z AUTO 21003KT 10SM SCT110 24/23 A2994 RMK AO2 LTG DSNT E T02370227
K0R4 222255Z AUTO 20004KT 10SM SCT050 SCT065 SCT110 24/23 A2994 RMK AO2 LTG DSNT E P0001 T02370226
K0R4 222235Z AUTO 20004KT 10SM -RA SCT050 BKN065 BKN090 23/22 A2994 RMK AO2 LTG DSNT SE P0001 T02330222
K0R4 222215Z AUTO 22006KT 10SM -RA SCT050 SCT070 OVC090 23/22 A2995 RMK AO2 LTG DSNT E AND SE P0001 T02340223
K0R4 222155Z AUTO 24008KT 10SM -RA SCT037 SCT050 OVC110 25/22 A2997 RMK AO2 LTG DSNT SE T02480221
K0R4 222135Z AUTO 29003KT 10SM SCT023 SCT038 BKN100 26/22 A2996 RMK AO2 LTG DSNT E THRU SW T02600221
K0R4 222115Z AUTO 24005KT 10SM BKN021 BKN038 BKN055 26/22 A2996 RMK AO2 LTG DSNT NE THRU SE T02610223
K0R4 222055Z AUTO 15006KT 10SM TS SCT038 SCT055 BKN120 27/22 A2997 RMK AO2 LTG DSNT ALQS T02650219
K0R4 222035Z AUTO 26008KT 10SM SCT022 SCT055 BKN085 26/22 A2995 RMK AO2 LTG DSNT E THRU SW T02640224
K0R4 222015Z AUTO 26012G21KT 10SM SCT020 SCT026 BKN047 27/23 A2995 RMK AO2 LTG DSNT SE T02690227
K0R4 221955Z AUTO 30005KT 10SM SCT120 29/24 A2994 RMK AO2 LTG DSNT S THRU NW T02890239
K0R4 221930Z AUTO 03004KT 10SM CLR 29/24 A2994 RMK AO2 LTG DSNT S THRU NW T02870237
K0R4 221915Z AUTO 00000KT 10SM CLR 29/23 A2994 RMK AO2 LTG DSNT W T02880234
K0R4 221855Z AUTO 33003KT 10SM SCT034 SCT044 SCT060 28/23 A2995 RMK AO2 LTG DSNT S THRU NW T02800231
K0R4 221835Z AUTO 30005KT 10SM SCT034 SCT044 SCT060 28/24 A2996 RMK AO2 LTG DSNT S AND W T02830235
K0R4 221815Z AUTO 30003KT 10SM CLR 28/23 A2997 RMK AO2 LTG DSNT SW T02840232
K0R4 221755Z AUTO 26007KT 10SM CLR 29/23 A2998 RMK AO2 LTG DSNT S T02880227 10325 20230
K0R4 221735Z AUTO 25010G14KT 10SM CLR 31/23 A2998 RMK AO2 LTG DSNT W T03100227
K0R4 221715Z AUTO 16007KT 10SM VCTS CLR 32/24 A2998 RMK AO2 LTG DSNT W AND NW T03240237
K0R4 221655Z AUTO 16008KT 10SM CLR 31/24 A2999 RMK AO2 LTG DSNT SW T03140238
K0R4 221635Z AUTO 17006KT 10SM CLR 31/25 A3000 RMK AO2 T03120245
K0R4 221615Z AUTO 15005KT 10SM CLR 31/24 A3000 RMK AO2 T03080244
K0R4 221555Z AUTO 15007KT 130V190 10SM SCT017 SCT022 30/25 A3001 RMK AO2 T03040247
K0R4 221535Z AUTO 16005KT 10SM SCT017 30/25 A3001 RMK AO2 T02950247
K0R4 221515Z AUTO 14009KT 10SM CLR 30/25 A3001 RMK AO2 T02960247
K0R4 221455Z AUTO 13006KT 10SM CLR 29/25 A3001 RMK AO2 T02900246
K0R4 221435Z AUTO 12004KT 10SM CLR 28/25 A3000 RMK AO2 T02840246
K0R4 221415Z AUTO 11006KT 10SM CLR 28/24 A3000 RMK AO2 T02760244
K0R4 221355Z AUTO 13005KT 10SM CLR 27/24 A3001 RMK AO2 LTG DSNT SW T02670241
K0R4 221335Z AUTO 12003KT 10SM CLR 26/24 A3001 RMK AO2 T02600237
K0R4 221315Z AUTO 00000KT 10SM CLR 25/23 A3000 RMK AO2 T02520234
K0R4 221255Z AUTO 08003KT 10SM CLR 25/23 A3000 RMK AO2 T02450231
K0R4 221235Z AUTO 10003KT 10SM CLR 24/23 A3000 RMK AO2 T02360228
K0R4 221215Z AUTO 08003KT 10SM CLR 23/22 A2999 RMK AO2 T02300222
K0R4 221155Z AUTO 00000KT 10SM CLR 23/22 A2999 RMK AO2 T02320224 10245 20230
K0R4 221135Z AUTO 00000KT 10SM CLR 23/22 A2999 RMK AO2 T02320224
K0R4 221115Z AUTO 00000KT 10SM CLR 23/23 A2999 RMK AO2 T02330225
K0R4 221055Z AUTO 10004KT 10SM CLR 23/22 A2998 RMK AO2 T02310223
K0R4 221035Z AUTO 00000KT 10SM CLR 23/22 A2998 RMK AO2 T02320224
K0R4 221015Z AUTO 11003KT 10SM CLR 23/23 A2999 RMK AO2 T02330225
K0R4 220955Z AUTO 00000KT 10SM CLR 24/23 A2998 RMK AO2 T02350226
K0R4 220935Z AUTO 10004KT 10SM CLR 23/23 A2999 RMK AO2 T02340226
K0R4 220915Z AUTO 08003KT 10SM CLR 24/23 A2998 RMK AO2 T02350226
K0R4 220855Z AUTO 09003KT 10SM CLR 23/22 A2998 RMK AO2 T02320224
K0R4 220835Z AUTO 00000KT 10SM CLR 24/23 A2998 RMK AO2 LTG DSNT S T02350226
K0R4 220815Z AUTO 00000KT 10SM CLR 24/23 A2998 RMK AO2 T02390227
K0R4 220755Z AUTO 09004KT 10SM CLR 24/23 A2998 RMK AO2 T02390228
K0R4 220735Z AUTO 04003KT 10SM CLR 24/23 A2999 RMK AO2 T02430229
K0R4 220715Z AUTO 00000KT 10SM CLR 25/23 A2999 RMK AO2 T02450230
K0R4 220655Z AUTO 00000KT 10SM CLR 24/23 A3000 RMK AO2 T02410230
K0R4 220635Z AUTO 14003KT 10SM CLR 24/23 A3000 RMK AO2 T02400230
K0R4 220615Z AUTO 00000KT 10SM CLR 24/23 A3000 RMK AO2 LTG DSNT SW T02440231
K0R4 220555Z AUTO 08004KT 10SM CLR 25/23 A3001 RMK AO2 T02450231 10270 20241 403450230
K0R4 220535Z AUTO 08003KT 10SM CLR 24/23 A3001 RMK AO2 T02430231
K0R4 220515Z AUTO 09005KT 10SM CLR 24/23 A3003 RMK AO2 T02430230
K0R4 220455Z AUTO 00000KT 10SM CLR 24/23 A3002 RMK AO2 T02410230
K0R4 220435Z AUTO 00000KT 10SM CLR 25/23 A3003 RMK AO2 T02450230
K0R4 220415Z AUTO 00000KT 10SM CLR 25/23 A3003 RMK AO2 T02480230
K0R4 220355Z AUTO 00000KT 10SM CLR 25/23 A3003 RMK AO2 T02490232
K0R4 220335Z AUTO 00000KT 10SM CLR 25/23 A3003 RMK AO2 T02500232
K0R4 220315Z AUTO 00000KT 10SM CLR 25/23 A3004 RMK AO2 T02480234
K0R4 220255Z AUTO 00000KT 10SM CLR 25/23 A3004 RMK AO2 T02490233
K0R4 220235Z AUTO 00000KT 10SM CLR 25/23 A3003 RMK AO2 T02460230
K0R4 220215Z AUTO 00000KT 10SM CLR 25/23 A3003 RMK AO2 T02520230
K0R4 220155Z AUTO 00000KT 10SM CLR 25/23 A3004 RMK AO2 T02470230
K0R4 220135Z AUTO 00000KT 10SM SCT026 SCT039 SCT047 26/23 A3003 RMK AO2 LTG DSNT NW T02550231
K0R4 220115Z AUTO 26004KT 10SM SCT028 BKN037 26/23 A3003 RMK AO2 LTG DSNT NW T02600231
K0R4 220055Z AUTO 22007KT 10SM SCT039 SCT047 26/23 A3003 RMK AO2 T02640233